Latest Weather Observations for Collie East

IDW60801

Issued at 8:35 pm WST Wednesday 1 October 2014 (issued every 30 minutes, with the page automatically refreshed every 10 minutes)

About weather observations | Map of weather stations | Latest weather observations for WA | Other Formats
Station Details ID: 009994 Name: COLLIE EAST Lat: -33.36 Lon: 116.17 Height: 200.0 m
Data from the previous 72 hours. | See also: Recent months at Collie East
Date/Time
WST
Temp
°C
App
Temp
°C
Dew
Point
Rel
Hum
%
Delta-T
°C
Wind Press
QNH
hPa
Press
MSL
hPa
Rain
since 9 am
mm
Dir
 
Spd
km/h
Gust
km/h
Spd
kts
Gust
kts
01/08:30pm 19.1 20.5 14.4 74 2.7 S 0 0 0 0 - - 0.0
01/08:00pm 19.7 20.8 13.6 68 3.5 S 0 6 0 3 - - 0.0
01/07:30pm 21.3 21.0 12.7 58 4.9 SE 6 9 3 5 - - 0.0
01/07:00pm 23.0 22.2 11.7 49 6.4 ESE 7 13 4 7 - - 0.0
01/06:30pm 22.2 22.2 14.1 60 4.8 SE 7 13 4 7 - - 0.0
01/06:00pm 22.6 23.6 13.1 55 5.5 CALM 0 0 0 0 - - 0.0
01/05:30pm 24.1 23.7 12.4 48 6.8 E 6 7 3 4 - - 0.0
01/05:00pm 25.1 24.4 12.0 44 7.5 ESE 7 9 4 5 - - 0.0
01/04:30pm 25.7 24.0 11.1 40 8.3 E 11 20 6 11 - - 0.0
01/04:00pm 27.1 25.0 12.3 39 8.6 E 15 24 8 13 - - 0.0
01/03:30pm 26.9 24.7 12.2 40 8.6 E 15 26 8 14 - - 0.0
01/03:00pm 27.0 25.3 12.3 40 8.6 NE 13 22 7 12 - - 0.0
01/02:30pm 26.5 24.7 12.2 41 8.3 ENE 13 20 7 11 - - 0.0
01/02:00pm 26.0 23.6 11.4 40 8.4 ENE 15 20 8 11 - - 0.0
01/01:30pm 25.8 24.1 12.6 44 7.7 ENE 13 20 7 11 - - 0.0
01/01:00pm 25.5 24.3 12.7 45 7.5 ENE 11 19 6 10 - - 0.0
01/12:30pm 24.9 23.8 13.1 48 6.9 ENE 11 20 6 11 - - 0.0
01/12:00pm 24.1 22.8 13.6 52 6.2 ENE 13 24 7 13 - - 0.0
01/11:30am 22.7 20.3 11.4 49 6.4 E 15 22 8 12 - - 0.0
01/11:00am 22.3 20.5 12.0 52 5.9 E 13 20 7 11 - - 0.0
01/10:30am 21.0 18.5 11.1 53 5.5 ENE 15 20 8 11 - - 0.0
01/10:00am 19.8 17.1 10.2 54 5.2 E 15 20 8 11 - - 0.0
01/09:30am 18.6 15.0 9.9 57 4.7 ENE 19 26 10 14 - - 0.0
01/09:00am 17.3 16.0 11.3 68 3.3 ESE 9 17 5 9 - - 0.0
01/08:30am 14.6 12.9 10.0 74 2.4 ESE 9 13 5 7 - - 0.0
01/08:00am 13.2 11.5 10.0 81 1.7 E 9 13 5 7 - - 0.0
01/07:30am 11.4 10.5 10.6 95 0.4 SE 6 11 3 6 - - 0.0
01/07:00am 8.6 7.0 7.8 95 0.4 SSE 6 7 3 4 - - 0.0
01/06:30am 7.0 6.2 6.3 95 0.3 CALM 0 0 0 0 - - 0.0
01/06:00am 6.7 5.7 5.8 94 0.4 CALM 0 0 0 0 - - 0.0
01/05:30am 6.9 6.0 6.2 95 0.3 CALM 0 0 0 0 - - 0.0
01/05:00am 7.1 6.3 6.4 95 0.3 CALM 0 0 0 0 - - 0.0
01/04:30am 6.6 5.2 5.7 94 0.4 SE 2 7 1 4 - - 0.0
01/04:00am 7.2 6.0 6.3 94 0.4 SE 2 6 1 3 - - 0.0
01/03:30am 7.1 6.2 6.2 94 0.4 CALM 0 0 0 0 - - 0.0
01/03:00am 7.1 6.2 6.2 94 0.4 CALM 0 0 0 0 - - 0.0
01/02:30am 7.5 6.7 6.6 94 0.4 CALM 0 0 0 0 - - 0.0
01/02:00am 7.6 6.5 6.7 94 0.4 SE 2 4 1 2 - - 0.0
01/01:30am 7.6 6.1 6.7 94 0.4 SE 4 6 2 3 - - 0.0
01/01:00am 7.3 6.4 6.2 93 0.5 CALM 0 0 0 0 - - 0.0
01/12:30am 8.0 6.6 7.1 94 0.4 SE 4 6 2 3 - - 0.0
01/12:00am 7.6 6.8 6.5 93 0.5 ESE 0 0 0 0 - - 0.0
 
Date/Time
WST
Temp
°C
App
Temp
°C
Dew
Point
Rel
Hum
%
Delta-T
°C
Wind Press
QNH
hPa
Press
MSL
hPa
Rain
since 9 am
mm
Dir
 
Spd
km/h
Gust
km/h
Spd
kts
Gust
kts
30/11:30pm 8.0 7.3 6.9 93 0.5 CALM 0 0 0 0 - - 0.0
30/11:00pm 8.7 8.1 7.6 93 0.5 CALM 0 0 0 0 - - 0.0
30/10:30pm 9.1 8.6 8.0 93 0.5 CALM 0 0 0 0 - - 0.0
30/10:00pm 9.0 8.4 7.6 91 0.7 CALM 0 0 0 0 - - 0.0
30/09:30pm 9.3 8.8 7.9 91 0.7 CALM 0 0 0 0 - - 0.0
30/09:00pm 9.8 9.4 8.1 89 0.8 CALM 0 0 0 0 - - 0.0
30/08:30pm 10.4 10.1 8.5 88 0.9 CALM 0 0 0 0 - - 0.0
30/08:00pm 11.2 11.0 8.9 86 1.2 CALM 0 0 0 0 - - 0.0
30/07:30pm 12.3 12.2 9.5 83 1.4 CALM 0 6 0 3 - - 0.0
30/07:00pm 13.5 12.6 10.5 82 1.6 SE 6 7 3 4 - - 0.0
30/06:30pm 14.9 13.8 10.1 73 2.5 SE 6 7 3 4 - - 0.0
30/06:00pm 16.5 15.3 9.4 63 3.7 E 6 9 3 5 - - 0.0
30/05:30pm 17.6 15.4 9.2 58 4.4 E 11 17 6 9 - - 0.0
30/05:00pm 18.4 17.1 10.0 58 4.5 ESE 7 13 4 7 - - 0.0
30/04:30pm 18.7 16.5 9.5 55 4.9 E 11 17 6 9 - - 0.0
30/04:00pm 18.8 17.0 9.3 54 5.0 ESE 9 19 5 10 - - 0.0
30/03:30pm 18.7 16.6 9.8 56 4.8 ESE 11 20 6 11 - - 0.0
30/03:00pm 17.7 15.4 9.1 57 4.5 ESE 11 19 6 10 - - 0.0
30/02:30pm 18.9 17.4 10.5 58 4.6 ESE 9 19 5 10 - - 0.0
30/02:00pm 17.7 15.6 9.8 60 4.2 SE 11 20 6 11 - - 0.0
30/01:30pm 17.3 15.4 9.2 59 4.3 E 9 15 5 8 - - 0.0
30/01:00pm 16.6 14.6 8.6 59 4.1 E 9 17 5 9 - - 0.0
30/12:30pm 16.2 13.9 8.9 62 3.8 ENE 11 17 6 9 - - 0.0
30/12:00pm 16.4 14.6 9.6 64 3.6 E 9 13 5 7 - - 0.0
30/11:30am 15.7 14.1 8.7 63 3.6 E 7 15 4 8 - - 0.0
30/11:00am 15.1 13.1 8.8 66 3.2 ESE 9 15 5 8 - - 0.0
30/10:30am 14.6 12.6 8.5 67 3.1 ESE 9 20 5 11 - - 0.0
30/10:00am 14.6 12.6 8.8 68 3.0 ESE 9 15 5 8 - - 0.0
30/09:30am 14.3 13.0 9.1 71 2.7 ESE 6 11 3 6 - - 0.0
30/09:00am 13.6 11.4 9.3 75 2.2 E 11 15 6 8 - - 0.6
30/08:30am 13.5 12.4 9.9 79 1.9 E 6 9 3 5 - - 0.6
30/08:00am 13.4 12.2 9.6 78 2.0 E 6 9 3 5 - - 0.6
30/07:30am 12.9 11.8 9.9 82 1.6 SE 6 9 3 5 - - 0.6
30/07:00am 11.5 11.6 10.2 92 0.7 CALM 0 0 0 0 - - 0.6
30/06:30am 10.8 10.8 9.7 93 0.6 CALM 0 0 0 0 - - 0.6
30/06:00am 10.5 10.4 9.3 92 0.6 CALM 0 0 0 0 - - 0.6
30/05:30am 10.3 10.1 9.1 92 0.6 CALM 0 0 0 0 - - 0.6
30/05:00am 10.9 10.9 9.7 92 0.6 CALM 0 0 0 0 - - 0.6
30/04:30am 10.8 10.7 9.6 92 0.6 CALM 0 0 0 0 - - 0.6
30/04:00am 10.7 10.6 9.6 93 0.6 CALM 0 0 0 0 - - 0.6
30/03:30am 10.7 10.6 9.5 92 0.6 CALM 0 0 0 0 - - 0.6
30/03:00am 10.5 10.4 9.4 93 0.6 CALM 0 0 0 0 - - 0.6
30/02:30am 10.2 10.0 9.1 93 0.6 CALM 0 0 0 0 - - 0.6
30/02:00am 10.0 9.8 8.9 93 0.5 CALM 0 0 0 0 - - 0.6
30/01:30am 9.8 9.5 8.7 93 0.5 CALM 0 0 0 0 - - 0.6
30/01:00am 9.0 8.5 7.9 93 0.5 CALM 0 0 0 0 - - 0.6
30/12:30am 9.6 9.3 8.5 93 0.5 CALM 0 0 0 0 - - 0.6
30/12:00am 9.9 8.9 8.8 93 0.5 NW 4 7 2 4 - - 0.6
 
Date/Time
WST
Temp
°C
App
Temp
°C
Dew
Point
Rel
Hum
%
Delta-T
°C
Wind Press
QNH
hPa
Press
MSL
hPa
Rain
since 9 am
mm
Dir
 
Spd
km/h
Gust
km/h
Spd
kts
Gust
kts
29/11:30pm 9.3 8.9 8.2 93 0.5 CALM 0 0 0 0 - - 0.6
29/11:00pm 8.4 7.8 7.2 92 0.6 CALM 0 0 0 0 - - 0.6
29/10:30pm 8.7 8.1 7.2 90 0.7 CALM 0 0 0 0 - - 0.6
29/10:00pm 9.7 9.3 8.3 91 0.7 CALM 0 0 0 0 - - 0.6
29/09:30pm 9.9 9.4 7.8 87 1.0 CALM 0 0 0 0 - - 0.6
29/09:00pm 11.0 10.8 8.9 87 1.1 CALM 0 0 0 0 - - 0.6
29/08:30pm 11.8 10.5 9.2 84 1.3 SW 6 7 3 4 - - 0.6
29/08:00pm 12.0 11.4 9.0 82 1.5 WSW 2 7 1 4 - - 0.6
29/07:30pm 11.6 11.2 8.3 80 1.6 CALM 0 0 0 0 - - 0.6
29/07:00pm 12.7 11.4 7.8 72 2.4 NW 4 6 2 3 - - 0.6
29/06:30pm 14.3 12.6 8.3 67 3.0 WSW 7 13 4 7 - - 0.6
29/06:00pm 15.2 13.1 8.4 64 3.5 WSW 9 15 5 8 - - 0.6
29/05:30pm 15.8 13.4 8.8 63 3.6 W 11 19 6 10 - - 0.6
29/05:00pm 16.8 14.2 9.2 61 4.0 WSW 13 26 7 14 - - 0.6
29/04:30pm 16.8 14.4 10.0 64 3.6 WSW 13 20 7 11 - - 0.6
29/04:00pm 17.6 14.7 9.5 59 4.3 WNW 15 24 8 13 - - 0.6
29/03:30pm 18.5 15.0 10.1 58 4.5 WNW 19 28 10 15 - - 0.6
29/03:00pm 18.6 15.5 8.8 53 5.1 WNW 15 24 8 13 - - 0.6
29/02:30pm 18.4 15.4 9.2 55 4.9 WNW 15 28 8 15 - - 0.6
29/02:00pm 18.1 15.7 10.2 60 4.2 W 13 26 7 14 - - 0.6
29/01:30pm 18.8 15.4 10.4 58 4.6 WNW 19 32 10 17 - - 0.6
29/01:00pm 19.1 16.3 11.4 61 4.3 WNW 17 32 9 17 - - 0.6
29/12:30pm 17.6 14.9 10.2 62 4.0 WNW 15 24 8 13 - - 0.6
29/12:00pm 17.7 15.0 10.3 62 4.0 W 15 26 8 14 - - 0.6
29/11:30am 17.4 15.5 11.7 69 3.1 W 13 26 7 14 - - 0.6
29/11:00am 15.9 13.9 11.5 75 2.4 W 13 20 7 11 - - 0.6
29/10:30am 15.8 13.6 12.2 79 2.0 WNW 15 24 8 13 - - 0.6
29/10:00am 15.6 15.0 13.4 87 1.2 W 9 15 5 8 - - 0.6
29/09:30am 15.6 13.9 12.4 81 1.8 W 13 24 7 13 - - 0.0
29/09:00am 14.1 13.4 12.1 88 1.1 WSW 7 20 4 11 - - 3.8
29/08:30am 15.2 13.6 12.7 85 1.4 W 13 20 7 11 - - 3.8
29/08:00am 14.4 13.6 13.0 91 0.8 WSW 9 15 5 8 - - 3.8
29/07:30am 13.5 12.6 12.6 94 0.5 W 9 17 5 9 - - 3.8
29/07:00am 12.6 11.8 11.8 95 0.4 NNW 7 9 4 5 - - 3.8
29/06:30am 11.8 12.1 10.9 94 0.5 CALM 0 0 0 0 - - 3.2
29/06:00am 11.4 11.6 10.5 94 0.5 CALM 0 0 0 0 - - 3.2
29/05:30am 11.4 10.4 10.3 93 0.6 N 6 6 3 3 - - 3.2
29/05:00am 11.9 12.2 10.8 93 0.6 CALM 0 0 0 0 - - 3.2
29/04:30am 12.1 11.3 11.0 93 0.6 N 6 7 3 4 - - 3.2
29/04:00am 12.7 12.1 11.6 93 0.6 NNW 6 7 3 4 - - 3.2
29/03:30am 12.9 12.3 11.8 93 0.6 NNW 6 7 3 4 - - 3.2
29/03:00am 12.9 12.3 11.8 93 0.6 W 6 9 3 5 - - 3.2
29/02:30am 13.2 12.7 12.1 93 0.6 WNW 6 9 3 5 - - 3.2
29/02:00am 13.2 12.5 12.1 93 0.6 WNW 7 13 4 7 - - 3.0
29/01:30am 13.1 12.4 12.0 93 0.6 NW 7 13 4 7 - - 2.8
29/01:00am 13.0 12.2 11.7 92 0.7 NW 7 9 4 5 - - 2.8
29/12:30am 13.4 12.8 12.3 93 0.6 WNW 7 17 4 9 - - 2.8
29/12:00am 13.4 12.0 12.1 92 0.7 NW 11 15 6 8 - - 2.4
 
Date/Time
WST
Temp
°C
App
Temp
°C
Dew
Point
Rel
Hum
%
Delta-T
°C
Wind Press
QNH
hPa
Press
MSL
hPa
Rain
since 9 am
mm
Dir
 
Spd
km/h
Gust
km/h
Spd
kts
Gust
kts
28/11:30pm 13.4 12.3 12.1 92 0.7 NW 9 19 5 10 - - 2.2
28/11:00pm 13.3 11.8 12.0 92 0.7 WNW 11 24 6 13 - - 1.8
28/10:30pm 13.6 13.2 12.3 92 0.7 WNW 6 13 3 7 - - 0.4
28/10:00pm 13.6 13.0 12.2 91 0.8 NW 7 13 4 7 - - 0.4
28/09:30pm 13.6 13.0 12.3 92 0.7 NW 7 11 4 6 - - 0.4
28/09:00pm 13.4 12.7 12.0 91 0.8 NW 7 11 4 6 - - 0.2

Other Formats:

Comma delimited format used in spreadsheet applications
http://www.bom.gov.au/fwo/IDW60801/IDW60801.95621.axf

JavaScript Object Notation format (JSON) in row-major order
http://www.bom.gov.au/fwo/IDW60801/IDW60801.95621.json